createdAt,value
2023-04-29T00:03:15.509Z,8.33
2023-04-29T00:08:18.148Z,8.32
2023-04-29T00:13:21.987Z,8.33
2023-04-29T00:18:24.469Z,8.36
2023-04-29T00:23:26.966Z,8.37
2023-04-29T00:28:30.805Z,8.36
2023-04-29T00:33:33.267Z,8.36
2023-04-29T00:38:35.754Z,8.40
2023-04-29T00:43:39.591Z,8.44
2023-04-29T00:48:42.338Z,8.44
2023-04-29T00:53:45.031Z,8.43
2023-04-29T00:58:51.726Z,8.41
2023-04-29T01:03:54.978Z,8.40
2023-04-29T01:09:11.954Z,8.43
2023-04-29T01:14:16.500Z,8.44
2023-04-29T01:19:32.546Z,8.43
2023-04-29T01:24:36.393Z,8.41
2023-04-29T01:29:44.980Z,8.45
2023-04-29T01:34:55.989Z,8.50
2023-04-29T01:40:09.382Z,8.55
2023-04-29T01:45:12.756Z,8.60
2023-04-29T01:50:15.264Z,8.66
2023-04-29T01:55:20.076Z,8.73
2023-04-29T02:00:22.788Z,8.79
2023-04-29T02:05:25.816Z,8.84
2023-04-29T02:10:29.751Z,8.85
2023-04-29T02:15:32.225Z,8.86
2023-04-29T02:20:34.683Z,8.90
2023-04-29T02:25:38.659Z,8.89
2023-04-29T02:30:41.464Z,8.92
2023-04-29T02:35:43.952Z,8.90
2023-04-29T02:40:48.144Z,8.91
2023-04-29T02:45:50.713Z,8.94
2023-04-29T02:50:53.278Z,8.98
2023-04-29T02:55:57.369Z,8.99
2023-04-29T03:01:00.002Z,9.02
2023-04-29T03:06:02.463Z,9.03
2023-04-29T03:11:06.647Z,9.08
2023-04-29T03:16:09.869Z,9.11
2023-04-29T03:21:12.388Z,9.10
2023-04-29T03:26:16.286Z,9.10
2023-04-29T03:31:20.870Z,9.13
2023-04-29T03:36:23.423Z,9.13
2023-04-29T03:41:27.254Z,9.17
2023-04-29T03:46:29.852Z,9.18
2023-04-29T03:51:32.666Z,9.25
2023-04-29T03:56:36.480Z,9.26
2023-04-29T04:01:39.028Z,9.28
2023-04-29T04:06:41.569Z,9.30
2023-04-29T04:11:45.611Z,9.36
2023-04-29T04:16:50.572Z,9.43
2023-04-29T04:21:53.200Z,9.46
2023-04-29T04:26:57.000Z,9.47
2023-04-29T04:31:59.495Z,9.49
2023-04-29T04:37:02.062Z,9.54
2023-04-29T04:42:05.945Z,9.60
2023-04-29T04:47:08.437Z,9.60
2023-04-29T04:52:11.583Z,9.61
2023-04-29T04:57:16.461Z,9.63
2023-04-29T05:02:19.179Z,9.65
2023-04-29T05:07:21.720Z,9.65
2023-04-29T05:12:30.480Z,9.68
2023-04-29T05:17:34.541Z,9.73
2023-04-29T05:22:37.110Z,9.72
2023-04-29T05:27:41.158Z,9.61
2023-04-29T05:32:45.310Z,9.60
2023-04-29T05:37:47.826Z,9.57
2023-04-29T05:42:51.944Z,9.58
2023-04-29T05:47:54.458Z,9.64
2023-04-29T05:52:57.394Z,9.68
2023-04-29T05:58:01.244Z,9.76
2023-04-29T06:03:03.882Z,9.82
2023-04-29T06:08:07.307Z,9.82
2023-04-29T06:13:11.258Z,9.82
2023-04-29T06:18:13.900Z,9.76
2023-04-29T06:23:16.403Z,9.72
2023-04-29T06:28:20.484Z,9.74
2023-04-29T06:33:22.955Z,9.78
2023-04-29T06:38:25.433Z,9.81
2023-04-29T06:43:29.242Z,9.86
2023-04-29T06:48:31.732Z,9.97
2023-04-29T06:53:34.208Z,10.10
2023-04-29T06:58:38.375Z,10.31
2023-04-29T07:03:41.035Z,10.47
2023-04-29T07:08:43.698Z,10.67
2023-04-29T07:13:47.507Z,10.84
2023-04-29T07:18:50.098Z,11.05
2023-04-29T07:23:52.567Z,11.18
2023-04-29T07:28:56.365Z,11.37
2023-04-29T07:33:58.834Z,11.57
2023-04-29T07:39:01.316Z,11.81
2023-04-29T07:44:05.524Z,12.14
2023-04-29T07:49:07.999Z,12.33
2023-04-29T07:54:10.889Z,12.59
2023-04-29T07:59:14.878Z,12.88
2023-04-29T08:04:17.639Z,13.09
2023-04-29T08:09:20.493Z,13.27
2023-04-29T08:14:24.447Z,13.25
2023-04-29T08:19:26.941Z,13.22
2023-04-29T08:24:29.706Z,13.00
2023-04-29T08:29:34.304Z,13.02
2023-04-29T08:34:37.570Z,13.19
2023-04-29T08:39:40.057Z,13.49
2023-04-29T08:44:44.483Z,13.66
2023-04-29T08:49:46.989Z,13.88
2023-04-29T08:54:49.500Z,13.86
2023-04-29T08:59:53.469Z,13.92
2023-04-29T09:05:06.078Z,14.04
2023-04-29T09:10:09.565Z,13.85
2023-04-29T09:15:13.557Z,13.67
2023-04-29T09:20:27.950Z,13.53
2023-04-29T09:25:31.245Z,13.74
2023-04-29T09:30:47.037Z,13.75
2023-04-29T09:35:49.876Z,13.72
2023-04-29T09:40:59.607Z,13.76
2023-04-29T09:46:04.071Z,13.75
2023-04-29T09:51:07.072Z,14.03
2023-04-29T09:56:09.586Z,14.06
2023-04-29T10:01:14.342Z,14.17
2023-04-29T10:06:18.247Z,14.18
2023-04-29T10:11:21.581Z,14.31
2023-04-29T10:16:30.116Z,14.40
2023-04-29T10:21:33.089Z,14.28
2023-04-29T10:26:39.529Z,14.37
2023-04-29T10:31:44.555Z,14.32
2023-04-29T10:36:48.140Z,14.36
2023-04-29T10:41:52.428Z,14.36
2023-04-29T10:47:20.878Z,14.31
2023-04-29T10:52:23.373Z,14.45
2023-04-29T10:57:26.935Z,14.55
2023-04-29T11:02:30.800Z,14.66
2023-04-29T11:07:33.337Z,14.67
2023-04-29T11:12:35.835Z,14.73
2023-04-29T11:17:41.178Z,14.84
2023-04-29T11:22:52.132Z,14.96
2023-04-29T11:27:56.749Z,15.07
2023-04-29T11:33:01.145Z,15.21
2023-04-29T11:38:05.742Z,15.17
2023-04-29T11:43:08.218Z,15.33
2023-04-29T11:48:19.155Z,15.35
2023-04-29T11:53:22.849Z,15.37
2023-04-29T11:58:25.674Z,15.57
2023-04-29T12:03:29.715Z,15.84
2023-04-29T12:08:33.995Z,15.92
2023-04-29T12:13:36.928Z,15.64
2023-04-29T12:18:41.050Z,15.69
2023-04-29T12:23:43.939Z,15.92
2023-04-29T12:28:46.509Z,15.95
2023-04-29T12:33:50.373Z,16.07
2023-04-29T12:38:54.575Z,16.25
2023-04-29T12:43:57.588Z,16.38
2023-04-29T12:49:03.174Z,16.32
2023-04-29T12:54:07.224Z,16.36
2023-04-29T12:59:11.766Z,16.66
2023-04-29T13:04:15.818Z,16.61
2023-04-29T13:09:19.157Z,16.50
2023-04-29T13:14:22.163Z,16.45
2023-04-29T13:19:43.294Z,16.84
2023-04-29T13:24:48.534Z,16.73
2023-04-29T13:29:51.192Z,16.69
2023-04-29T13:34:55.593Z,16.56
2023-04-29T13:39:58.146Z,16.44
2023-04-29T13:45:00.781Z,16.44
2023-04-29T14:00:38.158Z,16.79
2023-04-29T14:05:42.484Z,16.91
2023-04-29T14:10:45.068Z,16.64
2023-04-29T14:15:47.643Z,16.30
2023-04-29T14:20:51.584Z,16.36
2023-04-29T14:25:58.899Z,16.44
2023-04-29T14:31:09.039Z,16.42
2023-04-29T14:36:12.876Z,16.32
2023-04-29T14:41:15.894Z,16.41
2023-04-29T14:46:18.502Z,16.38
2023-04-29T14:51:22.373Z,16.48
2023-04-29T14:56:24.868Z,16.54
2023-04-29T15:01:28.679Z,16.53
2023-04-29T15:06:34.287Z,16.37
2023-04-29T15:11:36.806Z,16.00
2023-04-29T15:16:39.451Z,15.57
2023-04-29T15:21:43.304Z,15.54
2023-04-29T15:26:46.485Z,15.84
2023-04-29T15:31:49.043Z,15.81
2023-04-29T15:36:53.018Z,15.78
2023-04-29T15:41:55.513Z,15.66
2023-04-29T15:46:58.016Z,15.17
2023-04-29T15:52:02.496Z,15.18
2023-04-29T15:57:05.298Z,15.01
2023-04-29T16:02:10.703Z,14.88
2023-04-29T16:07:14.876Z,15.00
2023-04-29T16:12:17.390Z,14.84
2023-04-29T16:17:20.453Z,15.03
2023-04-29T16:22:24.449Z,15.09
2023-04-29T16:27:29.815Z,14.93
2023-04-29T16:32:33.468Z,14.89
2023-04-29T16:37:37.473Z,14.55
2023-04-29T16:42:39.943Z,14.45
2023-04-29T16:47:42.970Z,14.64
2023-04-29T16:52:46.975Z,14.25
2023-04-29T16:57:49.459Z,14.12
2023-04-29T17:02:52.845Z,14.05
2023-04-29T17:07:56.856Z,14.14
2023-04-29T17:12:59.407Z,14.07
2023-04-29T17:18:01.936Z,14.11
2023-04-29T17:23:06.296Z,14.00
2023-04-29T17:28:08.782Z,13.95
2023-04-29T17:33:13.259Z,13.61
2023-04-29T17:38:17.667Z,13.33
2023-04-29T17:43:20.136Z,13.20
2023-04-29T17:48:22.694Z,13.12
2023-04-29T17:53:28.446Z,12.92
2023-04-29T17:58:30.952Z,12.73
2023-04-29T18:03:33.541Z,12.59
2023-04-29T18:08:37.414Z,12.41
2023-04-29T18:13:40.224Z,12.33
2023-04-29T18:18:43.123Z,12.25
2023-04-29T18:23:47.629Z,12.12
2023-04-29T18:28:50.622Z,12.02
2023-04-29T18:33:53.136Z,11.87
2023-04-29T18:38:57.039Z,11.74
2023-04-29T18:43:59.624Z,11.59
2023-04-29T18:49:02.097Z,11.45
2023-04-29T18:54:06.152Z,11.34
2023-04-29T18:59:10.078Z,11.18
2023-04-29T19:04:12.656Z,11.10
2023-04-29T19:09:16.504Z,10.98
2023-04-29T19:14:19.289Z,10.86
2023-04-29T19:19:21.823Z,10.73
2023-04-29T19:24:25.782Z,10.71
2023-04-29T19:29:28.271Z,10.59
2023-04-29T19:34:30.855Z,10.56
2023-04-29T19:39:34.702Z,10.48
2023-04-29T19:44:37.202Z,10.39
2023-04-29T19:49:39.790Z,10.29
2023-04-29T19:54:43.624Z,10.22
2023-04-29T19:59:46.224Z,10.11
2023-04-29T20:04:49.135Z,9.96
2023-04-29T20:09:53.213Z,9.85
2023-04-29T20:14:56.316Z,9.74
2023-04-29T20:19:59.047Z,9.68
2023-04-29T20:25:03.049Z,9.61
2023-04-29T20:30:06.819Z,9.50
2023-04-29T20:35:09.353Z,9.41
2023-04-29T20:40:13.873Z,9.35
2023-04-29T20:45:16.659Z,9.30
2023-04-29T20:50:19.205Z,9.24
2023-04-29T20:55:23.330Z,9.17
2023-04-29T21:00:25.856Z,9.12
2023-04-29T21:05:28.354Z,9.02
2023-04-29T21:10:32.278Z,8.89
2023-04-29T21:15:34.821Z,8.78
2023-04-29T21:20:37.352Z,8.70
2023-04-29T21:25:41.179Z,8.58
2023-04-29T21:30:43.673Z,8.47
2023-04-29T21:35:49.754Z,8.34
2023-04-29T21:40:54.144Z,8.26
2023-04-29T21:45:56.649Z,8.18
2023-04-29T21:50:59.933Z,8.10
2023-04-29T21:56:03.933Z,8.04
2023-04-29T22:01:25.852Z,8.00
2023-04-29T22:06:28.480Z,7.94
2023-04-29T22:11:32.369Z,7.91
2023-04-29T22:16:35.894Z,7.85
2023-04-29T22:21:40.712Z,7.79
2023-04-29T22:26:44.502Z,7.76
2023-04-29T22:31:47.298Z,7.68
2023-04-29T22:36:49.804Z,7.59
2023-04-29T22:41:53.647Z,7.51
2023-04-29T22:46:56.105Z,7.44
2023-04-29T22:51:58.611Z,7.33
2023-04-29T22:57:03.511Z,7.28
2023-04-29T23:02:06.003Z,7.20
2023-04-29T23:07:08.500Z,7.13
2023-04-29T23:12:12.303Z,7.05
2023-04-29T23:17:14.805Z,7.01
2023-04-29T23:22:17.698Z,6.99
2023-04-29T23:27:21.654Z,6.95
2023-04-29T23:32:24.847Z,6.91
2023-04-29T23:37:27.442Z,6.89
2023-04-29T23:42:31.414Z,6.83
2023-04-29T23:47:33.953Z,6.80
2023-04-29T23:52:36.447Z,6.75
2023-04-29T23:57:40.340Z,6.69
